Time;durP1;ratioP1;P1;durP2;ratioP2;P2;SDS_P1;SDS_P2;PMS_P1;PMS_P2;Temp;Humidity;BMP_temperature;BMP_pressure;BME280_temperature;BME280_humidity;BME280_pressure;Samples;Min_cycle;Max_cycle;Signal;HPM_P1;HPM_P2
2021/10/13 00:02:12;;;;;;;;;;;8.40;1.00;;;;;;5070228;28;20722;-65
2021/10/13 00:04:37;;;;;;;;;;;8.20;1.00;;;;;;5071308;28;19913;-68
2021/10/13 00:07:03;;;;;;;;;;;8.10;1.00;;;;;;5058553;28;20354;-68
2021/10/13 00:09:29;;;;;;;;;;;8.10;1.00;;;;;;5051578;28;20000;-66
2021/10/13 00:11:54;;;;;;;;;;;8.00;1.00;;;;;;5048959;28;19919;-66
2021/10/13 00:14:20;;;;;;;;;;;8.00;1.00;;;;;;5051325;28;19955;-66
2021/10/13 00:17:02;;;;;;;;;;;8.00;1.00;;;;;;5050876;28;19948;-66
2021/10/13 00:19:28;;;;;;;;;;;8.00;1.00;;;;;;5051139;28;20039;-66
2021/10/13 00:21:53;;;;;;;;;;;8.10;1.00;;;;;;5050189;28;19944;-67
2021/10/13 00:24:19;;;;;;;;;;;8.20;1.00;;;;;;5050974;28;19925;-68
2021/10/13 00:26:44;;;;;;;;;;;8.30;1.00;;;;;;5049560;28;19913;-68
2021/10/13 00:29:10;;;;;;;;;;;8.30;1.00;;;;;;5065638;28;19948;-67
2021/10/13 00:31:35;;;;;;;;;;;8.30;1.00;;;;;;5070784;28;19915;-68
2021/10/13 00:34:00;;;;;;;;;;;8.40;1.00;;;;;;5069859;28;19923;-67
2021/10/13 00:36:26;;;;;;;;;;;8.40;1.00;;;;;;5070736;28;19947;-67
2021/10/13 00:38:51;;;;;;;;;;;8.50;1.00;;;;;;5050606;28;19919;-68
2021/10/13 00:41:17;;;;;;;;;;;8.50;1.00;;;;;;5050146;28;19975;-68
2021/10/13 00:43:43;;;;;;;;;;;8.60;1.00;;;;;;5048772;28;19912;-68
2021/10/13 00:46:08;;;;;;;;;;;8.60;1.00;;;;;;5049831;28;20016;-68
2021/10/13 00:48:34;;;;;;;;;;;8.60;1.00;;;;;;5050116;28;19917;-68
2021/10/13 00:50:59;;;;;;;;;;;8.70;1.00;;;;;;5050409;28;19970;-68
2021/10/13 00:53:25;;;;;;;;;;;8.70;1.00;;;;;;5055490;28;20011;-68
2021/10/13 00:55:52;;;;;;;;;;;8.70;1.00;;;;;;5061712;28;19935;-67
2021/10/13 00:58:18;;;;;;;;;;;8.80;99.90;;;;;;5067990;28;19908;-68
2021/10/13 01:00:45;;;;;;;;;;;8.80;99.90;;;;;;5070214;28;20300;-66
2021/10/13 01:03:20;;;;;;;;;;;8.80;1.00;;;;;;5045258;28;19917;-67
2021/10/13 01:05:52;;;;;;;;;;;8.80;99.90;;;;;;5050372;28;20345;-68
2021/10/13 01:08:26;;;;;;;;;;;8.80;99.90;;;;;;5049806;28;19912;-68
2021/10/13 01:11:03;;;;;;;;;;;8.80;99.90;;;;;;5049859;28;19917;-68
2021/10/13 01:13:48;;;;;;;;;;;8.80;99.90;;;;;;5047322;28;19908;-68
2021/10/13 01:16:14;;;;;;;;;;;8.80;99.90;;;;;;5049882;28;20273;-68
2021/10/13 01:18:53;;;;;;;;;;;8.90;99.90;;;;;;5049401;28;19916;-67
2021/10/13 01:21:37;;;;;;;;;;;8.90;99.90;;;;;;5048863;28;20376;-67
2021/10/13 01:24:17;;;;;;;;;;;8.90;99.90;;;;;;5048743;28;20281;-68
2021/10/13 01:26:46;;;;;;;;;;;8.90;99.90;;;;;;5048346;28;19924;-68
2021/10/13 01:29:13;;;;;;;;;;;8.90;99.90;;;;;;5064553;28;19909;-67
2021/10/13 01:31:43;;;;;;;;;;;8.90;99.90;;;;;;5068773;28;20027;-67
2021/10/13 01:34:12;;;;;;;;;;;8.90;99.90;;;;;;5069286;28;19912;-67
2021/10/13 01:36:40;;;;;;;;;;;8.90;99.90;;;;;;5067522;28;19978;-67
2021/10/13 01:39:06;;;;;;;;;;;8.90;99.90;;;;;;5049395;28;19916;-68
2021/10/13 01:41:33;;;;;;;;;;;8.90;39.30;;;;;;5047663;28;20046;-67
2021/10/13 01:44:00;;;;;;;;;;;8.90;1.00;;;;;;5047811;28;19919;-68
2021/10/13 01:46:27;;;;;;;;;;;8.90;1.00;;;;;;5049312;28;19987;-67
2021/10/13 01:48:54;;;;;;;;;;;8.90;1.00;;;;;;5048990;28;20388;-67
2021/10/13 01:51:20;;;;;;;;;;;8.80;99.90;;;;;;5048786;28;20441;-66
2021/10/13 01:53:47;;;;;;;;;;;8.80;99.90;;;;;;5048344;28;19923;-68
2021/10/13 01:56:13;;;;;;;;;;;8.80;99.90;;;;;;5048747;28;19990;-68
2021/10/13 01:58:41;;;;;;;;;;;8.80;1.00;;;;;;5047352;28;20563;-68
2021/10/13 02:01:09;;;;;;;;;;;8.80;1.00;;;;;;5048941;28;19963;-67
2021/10/13 02:03:35;;;;;;;;;;;8.80;1.00;;;;;;5047578;28;19935;-67
2021/10/13 02:06:02;;;;;;;;;;;8.80;1.00;;;;;;5049082;28;19909;-67
2021/10/13 02:08:28;;;;;;;;;;;8.80;1.00;;;;;;5048476;28;20270;-67
2021/10/13 02:10:55;;;;;;;;;;;8.80;1.00;;;;;;5048927;28;20263;-68
2021/10/13 02:13:21;;;;;;;;;;;8.70;1.00;;;;;;5046140;28;20343;-67
2021/10/13 02:15:48;;;;;;;;;;;8.70;1.00;;;;;;5048474;28;19940;-67
2021/10/13 02:18:16;;;;;;;;;;;8.80;1.00;;;;;;5048468;28;19939;-67
2021/10/13 02:20:42;;;;;;;;;;;8.70;99.90;;;;;;5048925;28;19915;-67
2021/10/13 02:23:09;;;;;;;;;;;8.70;1.00;;;;;;5047427;28;20332;-68
2021/10/13 02:25:35;;;;;;;;;;;8.70;1.00;;;;;;5048254;28;19965;-68
2021/10/13 02:28:02;;;;;;;;;;;8.80;1.00;;;;;;5052430;28;19924;-67
2021/10/13 02:30:28;;;;;;;;;;;8.70;1.00;;;;;;5060585;28;19948;-67
2021/10/13 02:32:53;;;;;;;;;;;8.80;1.00;;;;;;5065638;28;20373;-67
2021/10/13 02:35:19;;;;;;;;;;;8.70;1.00;;;;;;5068553;28;19909;-67
2021/10/13 02:37:44;;;;;;;;;;;8.70;1.00;;;;;;5056702;28;19909;-67
2021/10/13 02:40:10;;;;;;;;;;;8.70;1.00;;;;;;5048462;28;19908;-67
2021/10/13 02:42:38;;;;;;;;;;;8.70;1.00;;;;;;5046100;28;19916;-67
2021/10/13 02:45:03;;;;;;;;;;;8.70;1.00;;;;;;5048665;28;19916;-67
2021/10/13 02:47:32;;;;;;;;;;;8.70;1.00;;;;;;5048066;28;19909;-67
2021/10/13 02:49:57;;;;;;;;;;;8.70;1.00;;;;;;5047898;28;19944;-67
2021/10/13 02:52:50;;;;;;;;;;;8.70;1.00;;;;;;5047051;28;19940;-68
2021/10/13 02:55:17;;;;;;;;;;;8.60;1.00;;;;;;5048572;28;19908;-68
2021/10/13 02:57:46;;;;;;;;;;;8.60;1.00;;;;;;5046139;28;20377;-66
2021/10/13 03:00:12;;;;;;;;;;;8.50;99.90;;;;;;5048195;28;20043;-67
2021/10/13 03:02:58;;;;;;;;;;;8.50;99.90;;;;;;5046552;28;20011;-67
2021/10/13 03:05:24;;;;;;;;;;;8.40;1.00;;;;;;5048022;28;19916;-66
2021/10/13 03:07:50;;;;;;;;;;;8.20;1.00;;;;;;5047429;28;19909;-66
2021/10/13 03:10:16;;;;;;;;;;;8.20;1.00;;;;;;5048265;28;19913;-65
2021/10/13 03:12:45;;;;;;;;;;;8.20;1.00;;;;;;5045945;28;20456;-66
2021/10/13 03:15:11;;;;;;;;;;;8.10;1.00;;;;;;5048116;28;19913;-66
2021/10/13 03:17:38;;;;;;;;;;;8.00;1.00;;;;;;5047802;28;19908;-66
2021/10/13 03:20:04;;;;;;;;;;;8.00;1.00;;;;;;5047832;28;19959;-66
2021/10/13 03:22:30;;;;;;;;;;;8.00;14.90;;;;;;5046938;28;19920;-66
2021/10/13 03:24:55;;;;;;;;;;;8.00;90.20;;;;;;5047938;28;19909;-66
2021/10/13 03:27:25;;;;;;;;;;;8.00;99.90;;;;;;5049472;28;19908;-65
2021/10/13 03:29:50;;;;;;;;;;;8.00;99.90;;;;;;5071736;28;20560;-66
2021/10/13 03:32:16;;;;;;;;;;;8.10;99.90;;;;;;5069975;28;19915;-66
2021/10/13 03:34:42;;;;;;;;;;;8.10;87.40;;;;;;5071876;28;19912;-66
2021/10/13 03:37:07;;;;;;;;;;;8.10;90.00;;;;;;5065517;28;19913;-66
2021/10/13 03:39:33;;;;;;;;;;;8.10;99.90;;;;;;5051574;28;19909;-66
2021/10/13 03:42:04;;;;;;;;;;;8.20;1.00;;;;;;5048710;28;20447;-66
2021/10/13 03:44:29;;;;;;;;;;;8.20;1.00;;;;;;5051540;28;19928;-66
2021/10/13 03:46:55;;;;;;;;;;;8.10;1.00;;;;;;5051123;28;19928;-66
2021/10/13 03:49:20;;;;;;;;;;;8.20;1.00;;;;;;5051554;28;19986;-66
2021/10/13 03:51:46;;;;;;;;;;;8.20;1.00;;;;;;5050792;28;19917;-66
2021/10/13 03:54:11;;;;;;;;;;;8.10;1.00;;;;;;5059161;28;20320;-66
2021/10/13 03:56:37;;;;;;;;;;;8.10;1.00;;;;;;5065940;28;19959;-66
2021/10/13 03:59:02;;;;;;;;;;;8.10;1.00;;;;;;5070971;28;20345;-66
2021/10/13 04:01:28;;;;;;;;;;;8.10;1.00;;;;;;5070780;28;19978;-66
2021/10/13 04:03:53;;;;;;;;;;;8.10;1.00;;;;;;5070549;28;20301;-65
2021/10/13 04:06:19;;;;;;;;;;;8.10;1.00;;;;;;5064341;28;19948;-66
2021/10/13 04:08:44;;;;;;;;;;;8.00;1.00;;;;;;5050967;28;19913;-66
2021/10/13 04:11:10;;;;;;;;;;;7.90;1.00;;;;;;5051073;28;19964;-66
2021/10/13 04:13:36;;;;;;;;;;;7.90;1.00;;;;;;5048808;28;20012;-67
2021/10/13 04:16:02;;;;;;;;;;;7.80;1.00;;;;;;5051037;28;20340;-66
2021/10/13 04:18:27;;;;;;;;;;;7.80;1.00;;;;;;5050564;28;20020;-66
2021/10/13 04:20:53;;;;;;;;;;;7.90;1.00;;;;;;5050118;28;20448;-66
2021/10/13 04:23:18;;;;;;;;;;;7.90;1.00;;;;;;5045133;28;19919;-66
2021/10/13 04:25:44;;;;;;;;;;;7.80;1.00;;;;;;5049787;28;19916;-65
2021/10/13 04:28:10;;;;;;;;;;;7.70;1.00;;;;;;5055559;28;19931;-67
2021/10/13 04:30:37;;;;;;;;;;;7.60;99.90;;;;;;5069471;28;19917;-67
2021/10/13 04:33:03;;;;;;;;;;;7.60;99.90;;;;;;5067978;28;19913;-66
2021/10/13 04:35:29;;;;;;;;;;;7.60;99.90;;;;;;5070512;28;20012;-67
2021/10/13 04:37:55;;;;;;;;;;;7.60;99.90;;;;;;5068902;28;19908;-66
2021/10/13 04:40:20;;;;;;;;;;;7.70;99.90;;;;;;5068799;28;20006;-65
2021/10/13 04:42:46;;;;;;;;;;;7.70;99.90;;;;;;5065358;28;19919;-66
2021/10/13 04:45:12;;;;;;;;;;;7.70;99.90;;;;;;5067936;28;19908;-66
2021/10/13 04:47:38;;;;;;;;;;;7.70;99.90;;;;;;5067505;28;19912;-66
2021/10/13 04:50:03;;;;;;;;;;;7.80;99.90;;;;;;5067959;28;19908;-68
2021/10/13 04:52:29;;;;;;;;;;;7.80;99.90;;;;;;5061543;28;20417;-66
2021/10/13 04:54:54;;;;;;;;;;;7.70;99.90;;;;;;5047055;28;20629;-67
2021/10/13 04:57:20;;;;;;;;;;;7.80;99.90;;;;;;5045498;28;19912;-67
2021/10/13 04:59:45;;;;;;;;;;;7.80;99.90;;;;;;5046780;28;19913;-68
2021/10/13 05:02:11;;;;;;;;;;;7.80;99.90;;;;;;5045823;28;19966;-69
2021/10/13 05:04:36;;;;;;;;;;;7.80;99.90;;;;;;5043730;28;20452;-68
2021/10/13 05:07:02;;;;;;;;;;;7.90;99.90;;;;;;5045718;28;19960;-68
2021/10/13 05:09:27;;;;;;;;;;;7.80;99.90;;;;;;5034336;28;20000;-67
2021/10/13 05:11:54;;;;;;;;;;;7.80;99.90;;;;;;5025578;28;19998;-66
2021/10/13 05:14:19;;;;;;;;;;;7.80;1.00;;;;;;5046342;28;19941;-66
2021/10/13 05:16:45;;;;;;;;;;;7.80;1.00;;;;;;5046803;28;20448;-66
2021/10/13 05:19:10;;;;;;;;;;;7.80;1.00;;;;;;5047416;28;19920;-66
2021/10/13 05:21:36;;;;;;;;;;;7.70;1.00;;;;;;5046681;28;20584;-66
2021/10/13 05:24:01;;;;;;;;;;;7.50;1.00;;;;;;5046002;28;19942;-67
2021/10/13 05:26:28;;;;;;;;;;;7.40;1.00;;;;;;5045813;28;20015;-65
2021/10/13 05:28:53;;;;;;;;;;;7.30;1.00;;;;;;5057663;28;19913;-67
2021/10/13 05:31:19;;;;;;;;;;;7.20;1.00;;;;;;5058995;28;19935;-68
2021/10/13 05:33:44;;;;;;;;;;;7.10;1.00;;;;;;5066133;28;19915;-67
2021/10/13 05:36:10;;;;;;;;;;;7.00;1.00;;;;;;5067356;28;19919;-66
2021/10/13 05:38:35;;;;;;;;;;;6.90;1.00;;;;;;5048544;28;20355;-68
2021/10/13 05:41:01;;;;;;;;;;;6.90;1.00;;;;;;5046265;28;19952;-67
2021/10/13 05:43:26;;;;;;;;;;;6.80;1.00;;;;;;5044452;28;20368;-68
2021/10/13 05:45:52;;;;;;;;;;;6.80;1.00;;;;;;5046807;28;20636;-68
2021/10/13 05:48:17;;;;;;;;;;;6.80;1.00;;;;;;5046883;28;19921;-68
2021/10/13 05:50:43;;;;;;;;;;;6.90;1.00;;;;;;5046546;28;19931;-68
2021/10/13 05:53:08;;;;;;;;;;;7.10;1.00;;;;;;5045625;28;20259;-68
2021/10/13 05:55:34;;;;;;;;;;;7.10;1.00;;;;;;5046226;28;19909;-69
2021/10/13 05:58:04;;;;;;;;;;;7.00;1.00;;;;;;5044826;28;20373;-69
2021/10/13 06:00:30;;;;;;;;;;;6.90;1.00;;;;;;5045870;28;19960;-69
2021/10/13 06:02:56;;;;;;;;;;;6.90;1.00;;;;;;5044963;28;19955;-66
2021/10/13 06:05:22;;;;;;;;;;;6.80;1.00;;;;;;5046458;28;19964;-68
2021/10/13 06:07:47;;;;;;;;;;;6.80;1.00;;;;;;5046057;28;20038;-69
2021/10/13 06:10:13;;;;;;;;;;;7.00;1.00;;;;;;5046708;28;19978;-67
2021/10/13 06:12:38;;;;;;;;;;;7.40;1.00;;;;;;5044213;28;19908;-69
2021/10/13 06:15:04;;;;;;;;;;;7.90;1.00;;;;;;5046155;28;19913;-68
2021/10/13 06:17:31;;;;;;;;;;;8.10;1.00;;;;;;5045990;28;19924;-69
2021/10/13 06:19:56;;;;;;;;;;;8.40;99.90;;;;;;5046001;28;19912;-69
2021/10/13 06:22:22;;;;;;;;;;;8.90;1.00;;;;;;5045621;28;19916;-68
2021/10/13 06:24:47;;;;;;;;;;;9.50;1.00;;;;;;5047564;28;19917;-68
2021/10/13 06:27:13;;;;;;;;;;;10.00;99.90;;;;;;5046608;28;20617;-67
2021/10/13 06:29:38;;;;;;;;;;;10.60;99.90;;;;;;5067870;28;20265;-68
2021/10/13 06:32:04;;;;;;;;;;;12.30;99.90;;;;;;5067863;28;19916;-68
2021/10/13 06:34:29;;;;;;;;;;;13.70;1.00;;;;;;5068524;28;19912;-69
2021/10/13 06:36:55;;;;;;;;;;;14.80;99.90;;;;;;5064621;28;19982;-68
2021/10/13 06:39:20;;;;;;;;;;;14.30;99.90;;;;;;5048635;28;19909;-68
2021/10/13 06:41:46;;;;;;;;;;;14.40;99.90;;;;;;5047239;28;20337;-68
2021/10/13 06:44:12;;;;;;;;;;;14.80;99.90;;;;;;5048005;28;19921;-69
2021/10/13 06:46:40;;;;;;;;;;;14.50;99.90;;;;;;5048722;28;20015;-68
2021/10/13 06:49:06;;;;;;;;;;;14.50;99.90;;;;;;5048514;28;19917;-67
2021/10/13 06:51:32;;;;;;;;;;;14.40;99.90;;;;;;5048322;28;19913;-68
2021/10/13 06:53:57;;;;;;;;;;;13.80;99.90;;;;;;5055970;28;19912;-69
2021/10/13 06:56:23;;;;;;;;;;;13.50;99.90;;;;;;5061855;28;20000;-66
2021/10/13 06:58:48;;;;;;;;;;;13.20;99.90;;;;;;5067511;28;19944;-68
2021/10/13 07:01:14;;;;;;;;;;;15.30;99.90;;;;;;5070152;28;19908;-69
2021/10/13 07:03:39;;;;;;;;;;;18.50;99.90;;;;;;5071571;28;20014;-68
2021/10/13 07:06:05;;;;;;;;;;;21.20;99.90;;;;;;5068209;28;19912;-69
2021/10/13 07:08:31;;;;;;;;;;;23.50;99.90;;;;;;5052165;28;19909;-69
2021/10/13 07:10:56;;;;;;;;;;;25.50;99.90;;;;;;5052373;28;19913;-67
2021/10/13 07:13:22;;;;;;;;;;;27.00;99.90;;;;;;5050061;28;19912;-67
2021/10/13 07:15:47;;;;;;;;;;;28.60;99.90;;;;;;5052331;28;19912;-68
2021/10/13 07:18:13;;;;;;;;;;;30.70;99.90;;;;;;5049039;28;19916;-68
2021/10/13 07:20:38;;;;;;;;;;;32.20;99.90;;;;;;5052302;28;20020;-67
2021/10/13 07:23:06;;;;;;;;;;;29.30;99.90;;;;;;5050450;28;19919;-67
2021/10/13 07:25:32;;;;;;;;;;;25.70;99.90;;;;;;5051276;28;20639;-67
2021/10/13 07:27:58;;;;;;;;;;;22.90;99.90;;;;;;5054891;28;19919;-68
2021/10/13 07:30:24;;;;;;;;;;;20.60;99.90;;;;;;5072167;28;20364;-68
2021/10/13 07:32:51;;;;;;;;;;;19.90;99.90;;;;;;5070786;28;19955;-68
2021/10/13 07:35:16;;;;;;;;;;;19.50;99.90;;;;;;5071967;28;19908;-66
2021/10/13 07:37:42;;;;;;;;;;;18.90;99.90;;;;;;5060611;28;19916;-69
2021/10/13 07:40:07;;;;;;;;;;;19.70;99.90;;;;;;5051893;28;19913;-65
2021/10/13 07:42:33;;;;;;;;;;;24.60;99.90;;;;;;5049203;28;19920;-68
2021/10/13 07:44:59;;;;;;;;;;;26.10;99.90;;;;;;5052439;28;20256;-67
2021/10/13 07:47:24;;;;;;;;;;;25.60;99.90;;;;;;5050596;28;19909;-68
2021/10/13 07:49:50;;;;;;;;;;;25.60;99.90;;;;;;5048131;28;19920;-68
2021/10/13 07:52:16;;;;;;;;;;;25.10;99.90;;;;;;5050570;28;19952;-68
2021/10/13 07:54:41;;;;;;;;;;;23.20;99.90;;;;;;5051770;28;19999;-66
2021/10/13 07:57:07;;;;;;;;;;;22.80;99.90;;;;;;5049346;28;20003;-68
2021/10/13 07:59:32;;;;;;;;;;;21.40;99.90;;;;;;5051794;28;19948;-70
2021/10/13 08:01:58;;;;;;;;;;;20.20;99.90;;;;;;5050339;28;19913;-69
2021/10/13 08:04:25;;;;;;;;;;;20.20;99.90;;;;;;5051736;28;19913;-71
2021/10/13 08:06:51;;;;;;;;;;;25.00;99.90;;;;;;5051414;28;19942;-71
2021/10/13 08:09:17;;;;;;;;;;;26.30;99.90;;;;;;5051553;28;19909;-70
2021/10/13 08:11:43;;;;;;;;;;;27.60;99.90;;;;;;5049881;28;19913;-68
2021/10/13 08:14:09;;;;;;;;;;;28.70;99.90;;;;;;5050956;28;19913;-69
2021/10/13 08:16:34;;;;;;;;;;;30.20;99.90;;;;;;5051245;28;20300;-68
2021/10/13 08:19:00;;;;;;;;;;;33.40;99.90;;;;;;5051585;28;19909;-69
2021/10/13 08:21:25;;;;;;;;;;;36.30;99.60;;;;;;5051104;28;20392;-69
2021/10/13 08:23:51;;;;;;;;;;;37.80;94.00;;;;;;5049950;28;19913;-68
2021/10/13 08:26:16;;;;;;;;;;;36.70;82.60;;;;;;5050774;28;19915;-68
2021/10/13 08:28:43;;;;;;;;;;;31.70;63.60;;;;;;5055496;28;19913;-69
2021/10/13 08:31:09;;;;;;;;;;;32.10;58.80;;;;;;5062588;28;20007;-68
2021/10/13 08:33:34;;;;;;;;;;;29.90;52.10;;;;;;5070075;28;20005;-69
2021/10/13 08:36:00;;;;;;;;;;;28.50;49.60;;;;;;5070901;28;19908;-70
2021/10/13 08:38:25;;;;;;;;;;;30.10;49.30;;;;;;5053898;28;19912;-67
2021/10/13 08:40:51;;;;;;;;;;;28.60;41.60;;;;;;5050592;28;19981;-66
2021/10/13 08:43:16;;;;;;;;;;;28.10;38.30;;;;;;5048397;28;19913;-67
2021/10/13 08:45:42;;;;;;;;;;;31.50;39.10;;;;;;5050967;28;20259;-67
2021/10/13 08:48:07;;;;;;;;;;;34.50;34.00;;;;;;5049941;28;19920;-67
2021/10/13 08:50:34;;;;;;;;;;;37.20;28.70;;;;;;5050844;28;20270;-67
2021/10/13 08:53:07;;;;;;;;;;;33.70;20.90;;;;;;5049558;28;19951;-65
2021/10/13 08:55:33;;;;;;;;;;;29.80;16.60;;;;;;5050248;28;19909;-67
2021/10/13 08:58:12;;;;;;;;;;;29.00;18.70;;;;;;5048357;28;19962;-67
2021/10/13 09:00:38;;;;;;;;;;;33.30;17.20;;;;;;5050692;28;19917;-68
2021/10/13 09:03:04;;;;;;;;;;;36.80;12.80;;;;;;5049219;28;20397;-65
2021/10/13 09:05:30;;;;;;;;;;;37.40;8.80;;;;;;5050776;28;19909;-67
2021/10/13 09:07:56;;;;;;;;;;;39.70;6.80;;;;;;5049923;28;20534;-68
2021/10/13 09:10:37;;;;;;;;;;;39.20;1.00;;;;;;5050292;28;20300;-67
2021/10/13 09:13:04;;;;;;;;;;;34.70;1.00;;;;;;5047615;28;19940;-66
2021/10/13 09:15:30;;;;;;;;;;;31.00;1.00;;;;;;5050217;28;19913;-68
2021/10/13 09:18:03;;;;;;;;;;;28.20;1.00;;;;;;5049607;28;20011;-66
2021/10/13 09:20:30;;;;;;;;;;;25.60;1.00;;;;;;5050083;28;20265;-67
2021/10/13 09:22:58;;;;;;;;;;;23.80;1.00;;;;;;5049103;28;19995;-69
2021/10/13 09:25:24;;;;;;;;;;;22.50;1.00;;;;;;5049498;28;19909;-69
2021/10/13 09:27:50;;;;;;;;;;;21.50;1.00;;;;;;5052575;28;20442;-66
2021/10/13 09:30:24;;;;;;;;;;;20.70;1.00;;;;;;5058877;28;19927;-68
2021/10/13 09:32:49;;;;;;;;;;;19.80;1.00;;;;;;5066770;28;19920;-67
2021/10/13 09:35:25;;;;;;;;;;;23.70;1.00;;;;;;5069636;28;19908;-67
2021/10/13 09:37:51;;;;;;;;;;;22.50;1.00;;;;;;5057912;28;19912;-65
2021/10/13 09:40:27;;;;;;;;;;;21.30;1.00;;;;;;5049830;28;20384;-67
2021/10/13 09:42:54;;;;;;;;;;;20.20;1.00;;;;;;5047390;28;19956;-66
2021/10/13 09:45:19;;;;;;;;;;;19.00;1.00;;;;;;5049530;28;19908;-66
2021/10/13 09:47:45;;;;;;;;;;;18.10;1.00;;;;;;5049149;28;20286;-67
2021/10/13 09:50:14;;;;;;;;;;;17.50;1.00;;;;;;5049641;28;20424;-70
2021/10/13 09:52:40;;;;;;;;;;;17.00;6.50;;;;;;5048355;28;19940;-69
2021/10/13 09:55:10;;;;;;;;;;;16.60;1.00;;;;;;5049312;28;19909;-66
2021/10/13 09:57:43;;;;;;;;;;;17.20;2.60;;;;;;5047471;28;20289;-66
2021/10/13 10:00:11;;;;;;;;;;;17.90;4.20;;;;;;5049685;28;19912;-67
2021/10/13 10:02:40;;;;;;;;;;;17.70;4.40;;;;;;5048169;28;19909;-66
2021/10/13 10:05:08;;;;;;;;;;;17.40;5.40;;;;;;5031417;28;19919;-67
2021/10/13 10:07:34;;;;;;;;;;;17.20;6.20;;;;;;5048965;28;19999;-66
2021/10/13 10:10:12;;;;;;;;;;;16.70;6.60;;;;;;5049284;28;20384;-66
2021/10/13 10:12:57;;;;;;;;;;;16.50;7.10;;;;;;5046293;28;19955;-70
2021/10/13 10:15:29;;;;;;;;;;;16.30;8.20;;;;;;5049099;28;19923;-68
2021/10/13 10:17:54;;;;;;;;;;;16.20;9.00;;;;;;5049026;28;20350;-66
2021/10/13 10:20:34;;;;;;;;;;;16.10;10.10;;;;;;5048978;28;19916;-67
2021/10/13 10:22:59;;;;;;;;;;;16.10;11.20;;;;;;5047049;28;20008;-67
2021/10/13 10:25:34;;;;;;;;;;;16.00;12.20;;;;;;5048701;28;20083;-67
2021/10/13 10:27:59;;;;;;;;;;;16.10;13.60;;;;;;5053101;28;20353;-69
2021/10/13 10:30:25;;;;;;;;;;;16.30;15.40;;;;;;5069044;28;19909;-68
2021/10/13 10:32:53;;;;;;;;;;;16.20;16.50;;;;;;5067449;28;19909;-67
2021/10/13 10:35:18;;;;;;;;;;;16.20;16.90;;;;;;5068602;28;19909;-68
2021/10/13 10:37:48;;;;;;;;;;;16.00;17.60;;;;;;5057831;28;19912;-68
2021/10/13 10:40:14;;;;;;;;;;;16.10;18.60;;;;;;5048527;28;19909;-67
2021/10/13 10:42:45;;;;;;;;;;;16.10;18.40;;;;;;5046410;28;19962;-67
2021/10/13 10:45:11;;;;;;;;;;;16.30;20.40;;;;;;5048852;28;19916;-66
2021/10/13 10:47:47;;;;;;;;;;;16.20;21.70;;;;;;5030202;28;19960;-67
2021/10/13 10:50:14;;;;;;;;;;;16.20;21.20;;;;;;5048791;28;19916;-68
2021/10/13 10:52:59;;;;;;;;;;;16.40;22.40;;;;;;5047189;28;19952;-66
2021/10/13 10:55:33;;;;;;;;;;;16.60;22.90;;;;;;5055903;28;19913;-66
2021/10/13 10:58:11;;;;;;;;;;;16.90;24.20;;;;;;5046780;28;19996;-66
2021/10/13 11:00:37;;;;;;;;;;;17.10;24.80;;;;;;5048515;28;20376;-68
2021/10/13 11:03:16;;;;;;;;;;;17.50;25.90;;;;;;5047594;28;20330;-68
2021/10/13 11:05:42;;;;;;;;;;;18.50;28.20;;;;;;5048289;28;19909;-69
2021/10/13 11:08:10;;;;;;;;;;;19.30;29.40;;;;;;5047954;28;20332;-69
2021/10/13 11:10:36;;;;;;;;;;;19.80;29.20;;;;;;5048201;28;19948;-69
2021/10/13 11:13:02;;;;;;;;;;;19.80;28.20;;;;;;5045287;28;19956;-67
2021/10/13 11:15:28;;;;;;;;;;;19.80;28.20;;;;;;5048743;28;19963;-67
2021/10/13 11:17:54;;;;;;;;;;;19.60;27.10;;;;;;5047988;28;19908;-68
2021/10/13 11:20:24;;;;;;;;;;;19.50;26.60;;;;;;5048237;28;19909;-68
2021/10/13 11:22:56;;;;;;;;;;;19.50;25.90;;;;;;5047133;28;19920;-68
2021/10/13 11:25:23;;;;;;;;;;;19.50;25.10;;;;;;5048000;28;20373;-67
2021/10/13 11:27:58;;;;;;;;;;;19.60;25.80;;;;;;5050619;28;19919;-67
2021/10/13 11:30:23;;;;;;;;;;;20.10;38.40;;;;;;5047492;28;19921;-66
2021/10/13 11:32:49;;;;;;;;;;;20.70;27.40;;;;;;5037947;28;19913;-68
2021/10/13 11:35:18;;;;;;;;;;;21.30;27.50;;;;;;5048143;28;19909;-68
2021/10/13 11:37:51;;;;;;;;;;;21.80;27.70;;;;;;5047099;28;20313;-66
2021/10/13 11:40:17;;;;;;;;;;;22.20;26.70;;;;;;5047470;28;19917;-66
2021/10/13 11:42:46;;;;;;;;;;;22.20;26.30;;;;;;5045954;28;19909;-67
2021/10/13 11:45:13;;;;;;;;;;;22.50;25.20;;;;;;5048230;28;20472;-68
2021/10/13 11:47:38;;;;;;;;;;;22.70;24.20;;;;;;5045908;28;19909;-68
2021/10/13 11:50:05;;;;;;;;;;;22.70;23.80;;;;;;5078583;22;19928;-66
2021/10/13 11:52:31;;;;;;;;;;;22.40;22.10;;;;;;5065227;28;19986;-65
2021/10/13 11:55:03;;;;;;;;;;;21.80;20.30;;;;;;5052776;28;20002;-64
2021/10/13 11:57:29;;;;;;;;;;;21.00;17.90;;;;;;5049769;28;19913;-65
2021/10/13 12:00:13;;;;;;;;;;;20.30;17.10;;;;;;5051659;28;20241;-66
2021/10/13 12:02:39;;;;;;;;;;;20.00;16.60;;;;;;5051052;28;19916;-64
2021/10/13 12:05:06;;;;;;;;;;;20.50;17.40;;;;;;5052212;28;20051;-64
2021/10/13 12:07:40;;;;;;;;;;;20.80;18.10;;;;;;5035285;28;19910;-66
2021/10/13 12:10:06;;;;;;;;;;;21.20;18.40;;;;;;5032702;28;20399;-65
2021/10/13 12:12:31;;;;;;;;;;;21.40;17.50;;;;;;5029989;28;19959;-66
2021/10/13 12:14:57;;;;;;;;;;;21.70;17.50;;;;;;5030749;28;20312;-66
2021/10/13 12:17:24;;;;;;;;;;;21.80;17.10;;;;;;5031401;28;19909;-66
2021/10/13 12:19:50;;;;;;;;;;;21.70;16.60;;;;;;5038861;28;19936;-67
2021/10/13 12:22:19;;;;;;;;;;;21.30;14.90;;;;;;5034640;28;19909;-67
2021/10/13 12:24:59;;;;;;;;;;;20.90;14.80;;;;;;5035211;28;19914;-68
2021/10/13 12:27:31;;;;;;;;;;;20.20;13.20;;;;;;5039476;28;19909;-66
2021/10/13 12:29:57;;;;;;;;;;;19.40;12.10;;;;;;5042366;28;19966;-65
2021/10/13 12:32:32;;;;;;;;;;;18.50;11.90;;;;;;5054235;28;19980;-67
2021/10/13 12:35:11;;;;;;;;;;;17.80;12.20;;;;;;5053518;28;19960;-66
2021/10/13 12:37:44;;;;;;;;;;;17.20;12.50;;;;;;5051242;28;19912;-65
2021/10/13 12:40:14;;;;;;;;;;;16.70;14.10;;;;;;5051313;28;20038;-67
2021/10/13 12:42:39;;;;;;;;;;;16.30;15.80;;;;;;5049134;28;19913;-65
2021/10/13 12:45:05;;;;;;;;;;;16.10;17.90;;;;;;5051861;28;19936;-65
2021/10/13 12:47:33;;;;;;;;;;;15.80;18.20;;;;;;5052575;28;19959;-66
2021/10/13 12:50:09;;;;;;;;;;;15.70;19.90;;;;;;5052558;28;19932;-66
2021/10/13 12:52:35;;;;;;;;;;;15.60;20.90;;;;;;5044674;28;20349;-66
2021/10/13 12:55:00;;;;;;;;;;;15.50;21.60;;;;;;5053762;28;19924;-66
2021/10/13 12:57:27;;;;;;;;;;;15.40;22.70;;;;;;5049470;28;19913;-65
2021/10/13 12:59:53;;;;;;;;;;;15.30;23.50;;;;;;5048346;28;19912;-64
2021/10/13 13:02:18;;;;;;;;;;;15.30;25.00;;;;;;5050291;28;20704;-65
2021/10/13 13:04:46;;;;;;;;;;;15.40;25.70;;;;;;5052390;28;19984;-65
2021/10/13 13:07:12;;;;;;;;;;;15.40;26.60;;;;;;5037781;28;20342;-66
2021/10/13 13:09:38;;;;;;;;;;;15.50;27.10;;;;;;5030871;28;20018;-66
2021/10/13 13:12:05;;;;;;;;;;;15.50;26.60;;;;;;5028697;28;20388;-66
2021/10/13 13:14:31;;;;;;;;;;;15.60;27.50;;;;;;5031205;28;19917;-65
2021/10/13 13:16:56;;;;;;;;;;;15.70;28.00;;;;;;5031213;28;19923;-66
2021/10/13 13:19:22;;;;;;;;;;;15.90;29.00;;;;;;5031313;28;19921;-65
2021/10/13 13:21:48;;;;;;;;;;;16.00;30.00;;;;;;5029194;28;19960;-65
2021/10/13 13:24:13;;;;;;;;;;;16.30;30.80;;;;;;5030151;28;19909;-66
2021/10/13 13:26:39;;;;;;;;;;;16.60;32.30;;;;;;5029201;28;19913;-65
2021/10/13 13:29:05;;;;;;;;;;;16.80;32.40;;;;;;5044853;28;19936;-67
2021/10/13 13:31:30;;;;;;;;;;;16.90;33.10;;;;;;5049967;28;19915;-66
2021/10/13 13:33:56;;;;;;;;;;;16.90;32.00;;;;;;5050021;28;19917;-67
2021/10/13 13:36:21;;;;;;;;;;;16.70;31.20;;;;;;5050354;28;19909;-67
2021/10/13 13:38:47;;;;;;;;;;;16.60;31.40;;;;;;5049059;28;19912;-66
2021/10/13 13:41:13;;;;;;;;;;;16.40;31.50;;;;;;5050329;28;19909;-65
2021/10/13 13:43:39;;;;;;;;;;;16.40;31.40;;;;;;5048253;28;20480;-65
2021/10/13 13:46:04;;;;;;;;;;;16.30;31.10;;;;;;5050683;28;19931;-65
2021/10/13 13:48:30;;;;;;;;;;;16.20;31.10;;;;;;5050050;28;19962;-66
2021/10/13 13:50:56;;;;;;;;;;;16.30;32.00;;;;;;5048797;28;19955;-65
2021/10/13 13:53:25;;;;;;;;;;;16.30;30.90;;;;;;5042215;28;19917;-66
2021/10/13 13:55:52;;;;;;;;;;;16.20;32.40;;;;;;5050791;28;19916;-65
2021/10/13 13:58:18;;;;;;;;;;;16.10;31.90;;;;;;5048477;28;20364;-66
2021/10/13 14:00:43;;;;;;;;;;;16.00;31.00;;;;;;5050291;28;19909;-66
2021/10/13 14:03:09;;;;;;;;;;;15.80;31.90;;;;;;5049058;28;19916;-66
2021/10/13 14:05:34;;;;;;;;;;;15.60;31.70;;;;;;5050567;28;19915;-66
2021/10/13 14:08:00;;;;;;;;;;;15.30;32.40;;;;;;5030541;28;19967;-65
2021/10/13 14:10:25;;;;;;;;;;;15.10;34.60;;;;;;5035780;28;20588;-64
2021/10/13 14:12:51;;;;;;;;;;;14.90;35.20;;;;;;5028932;28;20663;-65
2021/10/13 14:15:16;;;;;;;;;;;14.70;36.10;;;;;;5030927;28;19986;-66
2021/10/13 14:17:42;;;;;;;;;;;14.50;36.60;;;;;;5029846;28;19909;-65
2021/10/13 14:20:08;;;;;;;;;;;14.30;37.90;;;;;;5029476;28;19985;-66
2021/10/13 14:22:33;;;;;;;;;;;14.20;40.10;;;;;;5029129;28;20015;-65
2021/10/13 14:24:59;;;;;;;;;;;14.30;41.10;;;;;;5030400;28;19958;-65
2021/10/13 14:27:25;;;;;;;;;;;14.30;41.80;;;;;;5029677;28;19976;-65
2021/10/13 14:29:50;;;;;;;;;;;14.20;42.70;;;;;;5050414;28;19909;-65